Blountville, Tennessee
Current Conditions -  °F | °C
As of 2:53 PM on Sunday 23 Nov 2014 (Local Time) from KTRI Reporting Station
Light Rain Light Rain  
Wind Chill: 57°   Ceiling: 11000
Heat Index: 57°   Visibility: 10mi
Dew Point: 49°   Wind: 13mph
Humidity: 74%   Direction: 100°E
Pressure: 29.85"   Gusts: NA
Location:  36.53°N, 82.33°W
Report Text: KTRI 231953Z 10011KT 10SM -RA SCT042 SCT060 OVC110 14/09 A2985 RMK AO2 RAE32B53 SLP099 P0000 T01390094
Loading
Personal Weather Stations






























Interactive Weather Map New forecast layout! Learn more

10-Day Weather Forecast

Advertisements
Track Severe Weather on mobile